createdAt,value
2022-11-13T00:00:38.061Z,7.80
2022-11-13T00:03:04.703Z,7.80
2022-11-13T00:05:31.345Z,7.70
2022-11-13T00:07:57.964Z,7.70
2022-11-13T00:10:24.642Z,7.80
2022-11-13T00:12:51.273Z,7.80
2022-11-13T00:15:18.127Z,7.80
2022-11-13T00:17:44.747Z,7.80
2022-11-13T00:20:11.369Z,7.80
2022-11-13T00:22:38.031Z,7.80
2022-11-13T00:25:04.856Z,7.70
2022-11-13T00:27:32.078Z,7.70
2022-11-13T00:29:58.803Z,7.70
2022-11-13T00:32:26.567Z,7.70
2022-11-13T00:34:53.223Z,7.70
2022-11-13T00:37:19.872Z,7.70
2022-11-13T00:39:46.515Z,7.70
2022-11-13T00:42:13.325Z,7.70
2022-11-13T00:44:39.986Z,7.70
2022-11-13T00:47:06.773Z,7.70
2022-11-13T00:49:33.404Z,7.70
2022-11-13T00:52:00.246Z,7.70
2022-11-13T00:54:26.870Z,7.80
2022-11-13T00:56:53.506Z,7.80
2022-11-13T00:59:20.148Z,7.80
2022-11-13T01:01:46.802Z,7.80
2022-11-13T01:04:13.450Z,7.80
2022-11-13T01:06:40.176Z,7.90
2022-11-13T01:09:06.889Z,7.80
2022-11-13T01:11:33.524Z,7.80
2022-11-13T01:14:00.157Z,7.80
2022-11-13T01:16:28.183Z,7.80
2022-11-13T01:18:55.781Z,7.80
2022-11-13T01:21:25.581Z,7.70
2022-11-13T01:23:53.698Z,7.70
2022-11-13T01:26:26.936Z,7.70
2022-11-13T01:28:55.028Z,7.70
2022-11-13T01:31:24.352Z,7.70
2022-11-13T01:33:51.250Z,7.80
2022-11-13T01:36:21.679Z,7.70
2022-11-13T01:38:49.152Z,7.80
2022-11-13T01:41:23.061Z,7.80
2022-11-13T01:43:50.803Z,7.80
2022-11-13T01:46:25.668Z,7.80
2022-11-13T01:49:01.287Z,7.90
2022-11-13T01:51:36.166Z,7.80
2022-11-13T01:54:07.236Z,7.80
2022-11-13T01:56:33.924Z,7.80
2022-11-13T01:59:12.439Z,7.80
2022-11-13T02:01:39.176Z,7.70
2022-11-13T02:04:06.059Z,7.60
2022-11-13T02:06:40.457Z,7.60
2022-11-13T02:09:08.040Z,7.60
2022-11-13T02:11:34.684Z,7.60
2022-11-13T02:14:02.375Z,7.60
2022-11-13T02:16:32.120Z,7.50
2022-11-13T02:18:59.416Z,7.40
2022-11-13T02:21:37.949Z,7.40
2022-11-13T02:24:25.850Z,7.30
2022-11-13T02:26:55.485Z,7.30
2022-11-13T02:29:22.248Z,7.20
2022-11-13T02:31:48.885Z,7.20
2022-11-13T02:34:15.609Z,7.20
2022-11-13T02:36:42.328Z,7.20
2022-11-13T02:39:11.833Z,7.20
2022-11-13T02:41:38.561Z,7.10
2022-11-13T02:44:07.148Z,7.20
2022-11-13T02:46:34.648Z,7.10
2022-11-13T02:49:01.303Z,7.10
2022-11-13T02:51:27.960Z,7.10
2022-11-13T02:53:55.151Z,7.10
2022-11-13T02:56:22.074Z,7.20
2022-11-13T02:58:48.748Z,7.20
2022-11-13T03:01:15.410Z,7.20
2022-11-13T03:03:57.540Z,7.20
2022-11-13T03:06:24.942Z,7.20
2022-11-13T03:08:51.607Z,7.30
2022-11-13T03:11:18.343Z,7.20
2022-11-13T03:13:44.996Z,7.20
2022-11-13T03:16:14.707Z,7.20
2022-11-13T03:18:42.107Z,7.20
2022-11-13T03:21:11.304Z,7.20
2022-11-13T03:23:38.318Z,7.20
2022-11-13T03:26:09.995Z,7.10
2022-11-13T03:28:36.950Z,7.20
2022-11-13T03:31:04.372Z,7.20
2022-11-13T03:33:31.863Z,7.30
2022-11-13T03:35:58.742Z,7.40
2022-11-13T03:38:25.824Z,7.40
2022-11-13T03:40:52.844Z,7.40
2022-11-13T03:43:19.573Z,7.50
2022-11-13T03:45:47.367Z,7.50
2022-11-13T03:48:15.533Z,7.60
2022-11-13T03:50:50.227Z,7.60
2022-11-13T03:53:16.934Z,7.60
2022-11-13T03:55:44.622Z,7.60
2022-11-13T03:58:11.838Z,7.70
2022-11-13T04:00:39.933Z,7.70
2022-11-13T04:03:06.663Z,7.70
2022-11-13T04:05:33.551Z,7.70
2022-11-13T04:08:00.358Z,7.70
2022-11-13T04:10:27.224Z,7.70
2022-11-13T04:12:53.856Z,7.70
2022-11-13T04:15:20.616Z,7.70
2022-11-13T04:17:48.276Z,7.70
2022-11-13T04:20:15.369Z,7.70
2022-11-13T04:22:42.029Z,7.70
2022-11-13T04:25:09.449Z,7.60
2022-11-13T04:27:36.246Z,7.60
2022-11-13T04:30:04.293Z,7.60
2022-11-13T04:32:32.219Z,7.70
2022-11-13T04:34:58.956Z,7.70
2022-11-13T04:37:25.580Z,7.60
2022-11-13T04:39:52.315Z,7.70
2022-11-13T04:42:37.676Z,7.70
2022-11-13T04:45:04.884Z,7.60
2022-11-13T04:47:31.527Z,7.50
2022-11-13T04:49:58.158Z,7.50
2022-11-13T04:52:24.867Z,7.50
2022-11-13T04:54:51.584Z,7.50
2022-11-13T04:57:18.181Z,7.50
2022-11-13T04:59:44.802Z,7.50
2022-11-13T05:02:11.443Z,7.40
2022-11-13T05:04:38.065Z,7.40
2022-11-13T05:07:04.811Z,7.40
2022-11-13T05:09:31.508Z,7.40
2022-11-13T05:11:58.181Z,7.40
2022-11-13T05:14:24.871Z,7.40
2022-11-13T05:16:51.652Z,7.40
2022-11-13T05:19:18.326Z,7.40
2022-11-13T05:21:45.020Z,7.40
2022-11-13T05:24:11.916Z,7.30
2022-11-13T05:26:39.530Z,7.20
2022-11-13T05:29:06.485Z,7.10
2022-11-13T05:31:33.210Z,7.00
2022-11-13T05:34:05.317Z,6.90
2022-11-13T05:36:32.692Z,6.90
2022-11-13T05:38:59.460Z,7.00
2022-11-13T05:41:26.815Z,6.80
2022-11-13T05:43:59.053Z,6.90
2022-11-13T05:46:28.797Z,6.80
2022-11-13T05:48:57.913Z,6.70
2022-11-13T05:51:30.572Z,6.80
2022-11-13T05:53:57.366Z,6.70
2022-11-13T05:56:30.698Z,6.70
2022-11-13T05:58:58.413Z,6.60
2022-11-13T06:01:34.300Z,6.60
2022-11-13T06:04:01.846Z,6.60
2022-11-13T06:06:30.002Z,6.60
2022-11-13T06:08:58.071Z,6.60
2022-11-13T06:11:26.761Z,6.60
2022-11-13T06:13:54.303Z,6.60
2022-11-13T06:16:26.759Z,6.60
2022-11-13T06:19:02.470Z,6.60
2022-11-13T06:21:32.181Z,6.60
2022-11-13T06:23:59.755Z,6.60
2022-11-13T06:26:36.519Z,6.60
2022-11-13T06:29:05.067Z,6.60
2022-11-13T06:31:34.448Z,6.70
2022-11-13T06:34:01.918Z,6.60
2022-11-13T06:36:31.043Z,6.60
2022-11-13T06:38:58.060Z,6.70
2022-11-13T06:41:29.305Z,6.70
2022-11-13T06:44:01.244Z,6.70
2022-11-13T06:46:30.036Z,6.70
2022-11-13T06:48:57.373Z,6.70
2022-11-13T06:51:30.318Z,6.70
2022-11-13T06:53:58.133Z,6.60
2022-11-13T06:56:25.145Z,6.60
2022-11-13T06:58:52.159Z,6.60
2022-11-13T07:01:24.057Z,6.60
2022-11-13T07:03:50.794Z,6.70
2022-11-13T07:06:22.563Z,6.70
2022-11-13T07:08:49.244Z,6.70
2022-11-13T07:11:18.605Z,6.60
2022-11-13T07:13:45.799Z,6.60
2022-11-13T07:16:17.465Z,6.60
2022-11-13T07:18:52.666Z,6.50
2022-11-13T07:21:20.639Z,6.50
2022-11-13T07:23:48.993Z,6.50
2022-11-13T07:26:15.780Z,6.50
2022-11-13T07:28:42.534Z,6.50
2022-11-13T07:31:10.888Z,6.50
2022-11-13T07:33:37.548Z,6.50
2022-11-13T07:36:04.557Z,6.50
2022-11-13T07:38:31.914Z,6.50
2022-11-13T07:40:59.193Z,6.60
2022-11-13T07:43:25.912Z,6.60
2022-11-13T07:45:54.813Z,6.70
2022-11-13T07:48:23.079Z,6.70
2022-11-13T07:50:50.340Z,6.70
2022-11-13T07:53:18.120Z,6.70
2022-11-13T07:55:44.851Z,6.70
2022-11-13T07:58:11.844Z,6.70
2022-11-13T08:00:39.116Z,6.70
2022-11-13T08:03:12.134Z,6.70
2022-11-13T08:05:39.723Z,6.70
2022-11-13T08:08:06.742Z,6.70
2022-11-13T08:10:33.435Z,6.70
2022-11-13T08:13:06.741Z,6.70
2022-11-13T08:15:34.262Z,6.70
2022-11-13T08:18:02.707Z,6.70
2022-11-13T08:20:30.807Z,6.70
2022-11-13T08:22:59.361Z,6.80
2022-11-13T08:25:26.587Z,6.80
2022-11-13T08:27:54.168Z,6.90
2022-11-13T08:30:21.265Z,6.90
2022-11-13T08:32:48.585Z,7.00
2022-11-13T08:35:19.221Z,7.10
2022-11-13T08:37:46.896Z,7.10
2022-11-13T08:40:14.129Z,7.10
2022-11-13T08:42:40.762Z,7.20
2022-11-13T08:45:08.728Z,7.10
2022-11-13T08:47:35.671Z,7.20
2022-11-13T08:50:02.401Z,7.20
2022-11-13T08:52:29.144Z,7.10
2022-11-13T08:54:55.855Z,7.10
2022-11-13T08:57:22.477Z,7.00
2022-11-13T08:59:49.286Z,7.10
2022-11-13T09:02:16.274Z,7.10
2022-11-13T09:04:42.944Z,7.10
2022-11-13T09:07:10.128Z,7.10
2022-11-13T09:09:37.252Z,7.00
2022-11-13T09:12:04.573Z,7.00
2022-11-13T09:14:31.327Z,7.00
2022-11-13T09:16:58.419Z,7.00
2022-11-13T09:19:25.598Z,7.10
2022-11-13T09:21:52.816Z,7.10
2022-11-13T09:24:19.645Z,7.10
2022-11-13T09:26:46.354Z,7.10
2022-11-13T09:29:12.969Z,7.10
2022-11-13T09:31:41.156Z,7.10
2022-11-13T09:34:08.700Z,7.20
2022-11-13T09:36:36.096Z,7.20
2022-11-13T09:39:04.372Z,7.30
2022-11-13T09:41:37.652Z,7.30
2022-11-13T09:44:13.352Z,7.20
2022-11-13T09:47:08.922Z,7.20
2022-11-13T09:49:41.062Z,7.20
2022-11-13T09:52:15.628Z,7.40
2022-11-13T09:54:42.611Z,7.50
2022-11-13T09:57:46.057Z,7.50
2022-11-13T10:00:22.375Z,7.50
2022-11-13T10:03:08.276Z,7.40
2022-11-13T10:05:38.005Z,7.40
2022-11-13T10:08:19.389Z,7.30
2022-11-13T10:10:55.513Z,7.20
2022-11-13T10:13:32.753Z,7.20
2022-11-13T10:16:13.728Z,7.10
2022-11-13T10:18:41.669Z,7.10
2022-11-13T10:21:37.246Z,7.10
2022-11-13T10:24:14.367Z,7.10
2022-11-13T10:26:41.255Z,7.10
2022-11-13T10:29:19.904Z,7.20
2022-11-13T10:31:51.360Z,7.30
2022-11-13T10:34:19.259Z,7.30
2022-11-13T10:37:27.236Z,7.30
2022-11-13T10:39:53.869Z,7.30
2022-11-13T10:42:27.796Z,7.40
2022-11-13T10:45:00.001Z,7.40
2022-11-13T10:48:02.097Z,7.40
2022-11-13T10:50:27.791Z,7.40
2022-11-13T10:52:55.933Z,7.50
2022-11-13T10:55:34.542Z,7.50
2022-11-13T10:58:03.420Z,7.60
2022-11-13T11:00:36.194Z,7.60
2022-11-13T11:03:02.841Z,7.60
2022-11-13T11:05:29.541Z,7.60
2022-11-13T11:07:57.613Z,7.60
2022-11-13T11:10:33.757Z,7.60
2022-11-13T11:13:12.923Z,7.70
2022-11-13T11:15:48.659Z,7.70
2022-11-13T11:18:33.827Z,7.80
2022-11-13T11:21:06.141Z,7.70
2022-11-13T11:23:56.712Z,7.70
2022-11-13T11:26:43.233Z,7.70
2022-11-13T11:29:16.412Z,7.70
2022-11-13T11:31:46.053Z,7.80
2022-11-13T11:34:20.367Z,7.80
2022-11-13T11:37:17.004Z,7.80
2022-11-13T11:39:55.500Z,7.90
2022-11-13T11:42:49.419Z,7.90
2022-11-13T11:45:30.069Z,7.90
2022-11-13T11:47:58.747Z,7.90
2022-11-13T11:50:33.959Z,7.90
2022-11-13T11:53:09.941Z,7.80
2022-11-13T11:55:45.624Z,7.80
2022-11-13T11:58:43.003Z,7.80
2022-11-13T12:01:20.590Z,7.80
2022-11-13T12:04:10.207Z,7.90
2022-11-13T12:06:58.706Z,8.00
2022-11-13T12:09:52.039Z,7.90
2022-11-13T12:12:30.751Z,7.90
2022-11-13T12:15:08.839Z,7.90
2022-11-13T12:18:18.418Z,8.00
2022-11-13T12:21:23.569Z,7.90
2022-11-13T12:24:02.262Z,7.90
2022-11-13T12:26:31.504Z,7.90
2022-11-13T12:29:31.413Z,7.90
2022-11-13T12:32:03.864Z,8.00
2022-11-13T12:34:39.720Z,8.00
2022-11-13T12:37:12.354Z,8.10
2022-11-13T12:39:38.934Z,8.10
2022-11-13T12:42:27.843Z,8.10
2022-11-13T12:45:26.177Z,8.20
2022-11-13T12:47:52.916Z,8.20
2022-11-13T12:50:31.711Z,8.20
2022-11-13T12:53:00.432Z,8.10
2022-11-13T12:55:34.535Z,8.10
2022-11-13T12:58:18.557Z,8.10
2022-11-13T13:01:13.234Z,8.10
2022-11-13T13:04:17.818Z,8.10
2022-11-13T13:06:53.450Z,8.10
2022-11-13T13:09:44.150Z,8.00
2022-11-13T13:12:40.638Z,8.00
2022-11-13T13:15:10.061Z,8.00
2022-11-13T13:17:36.814Z,8.00
2022-11-13T13:20:15.488Z,8.00
2022-11-13T13:22:42.183Z,8.00
2022-11-13T13:25:27.690Z,8.00
2022-11-13T13:28:23.038Z,8.00
2022-11-13T13:31:15.349Z,8.00
2022-11-13T13:34:00.246Z,8.00
2022-11-13T13:36:42.069Z,8.00
2022-11-13T13:39:23.689Z,8.00
2022-11-13T13:42:07.176Z,8.10
2022-11-13T13:44:51.944Z,8.10
2022-11-13T13:47:39.056Z,8.00
2022-11-13T13:50:24.247Z,8.00
2022-11-13T13:52:55.681Z,7.90
2022-11-13T13:55:31.076Z,7.90
2022-11-13T13:58:02.698Z,7.90
2022-11-13T14:00:32.116Z,7.90
2022-11-13T14:02:59.032Z,7.90
2022-11-13T14:05:34.555Z,7.90
2022-11-13T14:08:07.346Z,7.90
2022-11-13T14:10:36.217Z,8.00
2022-11-13T14:13:03.693Z,7.90
2022-11-13T14:15:35.060Z,8.00
2022-11-13T14:20:52.991Z,7.90
2022-11-13T14:23:29.934Z,7.90
2022-11-13T14:25:57.290Z,7.90
2022-11-13T14:28:30.159Z,7.90
2022-11-13T14:31:08.059Z,7.90
2022-11-13T14:33:39.844Z,7.90
2022-11-13T14:36:06.890Z,7.90
2022-11-13T14:38:36.495Z,7.90
2022-11-13T14:41:04.291Z,7.90
2022-11-13T14:43:32.769Z,7.90
2022-11-13T14:46:04.750Z,7.90
2022-11-13T14:48:33.902Z,7.90
2022-11-13T14:51:02.922Z,7.90
2022-11-13T14:53:35.058Z,7.90
2022-11-13T14:56:05.234Z,7.90
2022-11-13T14:58:46.994Z,7.90
2022-11-13T15:01:18.203Z,7.90
2022-11-13T15:03:46.089Z,7.80
2022-11-13T15:06:22.105Z,7.80
2022-11-13T15:08:50.432Z,7.80
2022-11-13T15:11:19.419Z,7.80
2022-11-13T15:13:46.619Z,7.80
2022-11-13T15:16:19.880Z,7.80
2022-11-13T15:18:52.204Z,7.80
2022-11-13T15:21:19.055Z,7.80
2022-11-13T15:23:45.726Z,7.80
2022-11-13T15:26:12.938Z,7.80
2022-11-13T15:28:40.216Z,7.80
2022-11-13T15:31:20.420Z,7.80
2022-11-13T15:33:47.928Z,7.80
2022-11-13T15:36:14.888Z,7.80
2022-11-13T15:38:41.524Z,7.80
2022-11-13T15:41:32.940Z,7.70
2022-11-13T15:44:02.464Z,7.70
2022-11-13T15:46:29.079Z,7.70
2022-11-13T15:48:56.041Z,7.60
2022-11-13T15:51:43.262Z,7.60
2022-11-13T15:54:14.978Z,7.60
2022-11-13T15:56:42.772Z,7.50
2022-11-13T15:59:13.853Z,7.60
2022-11-13T16:01:41.307Z,7.60
2022-11-13T16:04:08.827Z,7.60
2022-11-13T16:06:36.118Z,7.60
2022-11-13T16:09:04.178Z,7.60
2022-11-13T16:11:32.722Z,7.60
2022-11-13T16:13:59.937Z,7.60
2022-11-13T16:16:31.340Z,7.60
2022-11-13T16:19:00.424Z,7.60
2022-11-13T16:21:27.580Z,7.60
2022-11-13T16:23:54.203Z,7.60
2022-11-13T16:26:25.971Z,7.60
2022-11-13T16:29:13.610Z,7.60
2022-11-13T16:31:41.578Z,7.50
2022-11-13T16:34:08.267Z,7.50
2022-11-13T16:36:35.141Z,7.50
2022-11-13T16:39:02.087Z,7.50
2022-11-13T16:41:31.342Z,7.50
2022-11-13T16:43:58.476Z,7.50
2022-11-13T16:46:29.232Z,7.50
2022-11-13T16:48:56.259Z,7.40
2022-11-13T16:51:23.264Z,7.40
2022-11-13T16:53:49.992Z,7.40
2022-11-13T16:56:24.635Z,7.40
2022-11-13T16:58:51.584Z,7.50
2022-11-13T17:01:19.945Z,7.50
2022-11-13T17:03:46.593Z,7.50
2022-11-13T17:06:26.575Z,7.50
2022-11-13T17:08:55.441Z,7.50
2022-11-13T17:11:23.872Z,7.50
2022-11-13T17:13:56.350Z,7.50
2022-11-13T17:16:25.308Z,7.50
2022-11-13T17:18:53.302Z,7.50
2022-11-13T17:21:21.944Z,7.50
2022-11-13T17:23:53.626Z,7.50
2022-11-13T17:26:20.246Z,7.50
2022-11-13T17:28:46.894Z,7.50
2022-11-13T17:31:13.554Z,7.60
2022-11-13T17:33:40.284Z,7.60
2022-11-13T17:36:08.964Z,7.50
2022-11-13T17:38:36.040Z,7.60
2022-11-13T17:41:10.467Z,7.60
2022-11-13T17:43:38.380Z,7.50
2022-11-13T17:46:06.287Z,7.50
2022-11-13T17:48:34.108Z,7.40
2022-11-13T17:51:02.966Z,7.40
2022-11-13T17:53:30.708Z,7.40
2022-11-13T17:55:59.807Z,7.50
2022-11-13T17:58:27.567Z,7.50
2022-11-13T18:00:54.864Z,7.50
2022-11-13T18:03:21.540Z,7.50
2022-11-13T18:05:48.180Z,7.50
2022-11-13T18:08:15.528Z,7.60
2022-11-13T18:10:43.058Z,7.60
2022-11-13T18:13:10.059Z,7.60
2022-11-13T18:15:38.892Z,7.60
2022-11-13T18:18:07.132Z,7.60
2022-11-13T18:20:35.185Z,7.70
2022-11-13T18:23:02.017Z,7.70
2022-11-13T18:25:28.880Z,7.70
2022-11-13T18:27:55.640Z,7.60
2022-11-13T18:30:22.780Z,7.70
2022-11-13T18:32:50.279Z,7.60
2022-11-13T18:35:17.092Z,7.60
2022-11-13T18:37:43.735Z,7.60
2022-11-13T18:40:10.935Z,7.60
2022-11-13T18:42:37.663Z,7.70
2022-11-13T18:45:06.145Z,7.70
2022-11-13T18:47:33.050Z,7.70
2022-11-13T18:49:59.667Z,7.70
2022-11-13T18:52:26.388Z,7.70
2022-11-13T18:54:53.023Z,7.70
2022-11-13T18:57:19.659Z,7.70
2022-11-13T18:59:46.300Z,7.70
2022-11-13T19:02:13.291Z,7.60
2022-11-13T19:04:39.999Z,7.60
2022-11-13T19:07:07.877Z,7.60
2022-11-13T19:09:34.774Z,7.60
2022-11-13T19:12:01.966Z,7.60
2022-11-13T19:14:28.595Z,7.50
2022-11-13T19:16:55.250Z,7.60
2022-11-13T19:19:23.780Z,7.60
2022-11-13T19:21:51.025Z,7.60
2022-11-13T19:24:18.064Z,7.60
2022-11-13T19:26:45.152Z,7.60
2022-11-13T19:29:12.340Z,7.60
2022-11-13T19:31:39.164Z,7.60
2022-11-13T19:34:07.554Z,7.50
2022-11-13T19:36:35.693Z,7.50
2022-11-13T19:39:03.057Z,7.50
2022-11-13T19:41:30.235Z,7.50
2022-11-13T19:43:59.743Z,7.50
2022-11-13T19:46:27.011Z,7.60
2022-11-13T19:48:53.660Z,7.60
2022-11-13T19:51:22.741Z,7.60
2022-11-13T19:53:54.179Z,7.60
2022-11-13T19:56:22.481Z,7.50
2022-11-13T19:58:50.891Z,7.50
2022-11-13T20:01:20.026Z,7.50
2022-11-13T20:03:47.036Z,7.50
2022-11-13T20:06:16.402Z,7.40
2022-11-13T20:08:43.164Z,7.40
2022-11-13T20:11:11.468Z,7.40
2022-11-13T20:13:41.494Z,7.40
2022-11-13T20:16:11.604Z,7.40
2022-11-13T20:18:38.954Z,7.30
2022-11-13T20:21:06.292Z,7.20
2022-11-13T20:23:33.294Z,7.10
2022-11-13T20:26:02.233Z,7.10
2022-11-13T20:28:29.813Z,6.90
2022-11-13T20:31:08.059Z,6.80
2022-11-13T20:33:35.369Z,6.80
2022-11-13T20:36:03.086Z,6.70
2022-11-13T20:38:30.257Z,6.70
2022-11-13T20:40:57.317Z,6.70
2022-11-13T20:43:24.435Z,6.70
2022-11-13T20:45:51.083Z,6.70
2022-11-13T20:48:17.806Z,6.60
2022-11-13T20:50:44.806Z,6.60
2022-11-13T20:53:11.528Z,6.60
2022-11-13T20:55:38.832Z,6.60
2022-11-13T20:58:05.636Z,6.50
2022-11-13T21:00:32.340Z,6.50
2022-11-13T21:02:58.995Z,6.50
2022-11-13T21:05:26.776Z,6.40
2022-11-13T21:07:53.691Z,6.40
2022-11-13T21:10:20.310Z,6.40
2022-11-13T21:12:46.923Z,6.40
2022-11-13T21:15:13.584Z,6.30
2022-11-13T21:17:40.242Z,6.30
2022-11-13T21:20:07.863Z,6.30
2022-11-13T21:22:34.570Z,6.20
2022-11-13T21:25:01.177Z,6.20
2022-11-13T21:27:27.811Z,6.20
2022-11-13T21:29:54.444Z,6.20
2022-11-13T21:32:21.102Z,6.20
2022-11-13T21:34:47.741Z,6.20
2022-11-13T21:37:14.568Z,6.20
2022-11-13T21:39:41.203Z,6.10
2022-11-13T21:42:07.886Z,6.10
2022-11-13T21:44:34.581Z,6.10
2022-11-13T21:47:01.301Z,6.10
2022-11-13T21:49:27.950Z,6.10
2022-11-13T21:51:54.598Z,6.00
2022-11-13T21:54:21.243Z,6.00
2022-11-13T21:56:47.871Z,6.00
2022-11-13T21:59:15.211Z,6.00
2022-11-13T22:01:42.059Z,6.00
2022-11-13T22:04:08.724Z,5.90
2022-11-13T22:06:36.365Z,5.90
2022-11-13T22:09:07.939Z,5.90
2022-11-13T22:11:36.883Z,5.80
2022-11-13T22:14:04.606Z,5.80
2022-11-13T22:16:33.099Z,5.80
2022-11-13T22:19:03.423Z,5.80
2022-11-13T22:21:31.283Z,5.80
2022-11-13T22:23:59.237Z,5.80
2022-11-13T22:26:27.477Z,5.70
2022-11-13T22:28:54.924Z,5.70
2022-11-13T22:31:24.153Z,5.70
2022-11-13T22:33:54.860Z,5.70
2022-11-13T22:36:34.229Z,5.70
2022-11-13T22:39:01.714Z,5.70
2022-11-13T22:41:31.178Z,5.60
2022-11-13T22:44:03.856Z,5.60
2022-11-13T22:46:32.985Z,5.60
